Latest Weather Observations for Norfolk Island

IDN60801

Issued at 5:32 pm EST Sunday 19 April 2015 (issued every 30 minutes, with the page automatically refreshed every 10 minutes)

About weather observations | Map of weather stations | Latest weather observations for NSW | Other Formats
Station Details ID: 200288 Name: NORFOLK ISLAND AERO Lat: -29.04 Lon: 167.94 Height: 111.73 m
Data from the previous 72 hours. | See also: Recent months at Norfolk Island
Date/Time
EST
Temp
°C
App
Temp
°C
Dew
Point
Rel
Hum
%
Delta-T
°C
Wind Press
QNH
hPa
Press
MSL
hPa
Rain
since 9 am
mm
Dir
 
Spd
km/h
Gust
km/h
Spd
kts
Gust
kts
19/05:00pm 19.3 18.7 13.5 69 3.3 E 9 11 5 6 1023.1 - 0.0
19/04:30pm 19.4 18.5 13.6 69 3.3 E 11 13 6 7 1022.8 1022.5 0.0
19/04:00pm 20.4 19.4 13.4 64 4.0 ESE 11 17 6 9 1022.8 - 0.0
19/03:30pm 21.1 19.4 13.7 62 4.3 E 15 22 8 12 1022.7 - 0.0
19/03:00pm 21.1 18.6 13.5 62 4.4 E 19 28 10 15 1022.5 - 0.0
19/02:30pm 22.1 20.7 14.4 61 4.5 ESE 15 22 8 12 1022.2 - 0.0
19/02:00pm 22.2 20.3 14.2 60 4.7 SE 17 26 9 14 1021.9 - 0.0
19/01:30pm 22.4 20.3 13.6 57 5.1 SE 17 24 9 13 1022.1 1021.8 0.0
19/01:00pm 22.5 20.7 14.5 60 4.7 ESE 17 26 9 14 1022.3 - 0.0
19/12:30pm 21.9 19.6 14.2 61 4.5 SE 19 26 10 14 1022.6 - 0.0
19/12:00pm 22.2 20.8 14.6 62 4.5 SE 15 22 8 12 1022.7 - 0.0
19/11:30am 22.5 21.2 14.7 61 4.6 SE 15 24 8 13 1022.8 - 0.0
19/11:00am 22.3 20.9 14.5 61 4.6 SE 15 26 8 14 1023.3 - 0.0
19/10:30am 22.3 20.9 14.5 61 4.6 E 15 22 8 12 1023.5 1023.1 0.0
19/10:00am 22.8 21.2 15.1 62 4.6 ESE 17 24 9 13 1023.9 - 0.0
19/09:30am 22.1 20.5 15.0 64 4.2 ESE 17 24 9 13 1024.2 - 0.0
19/09:00am 22.3 21.6 15.3 64 4.2 SSE 13 19 7 10 1024.3 - 0.0
19/08:00am 21.5 22.1 15.8 70 3.4 SW 7 13 4 7 1024.5 - 0.0
19/07:30am 20.9 21.9 15.3 70 3.3 SSW 4 9 2 5 1024.7 1024.3 0.0
19/07:00am 20.8 21.2 15.2 70 3.3 SW 7 11 4 6 1024.6 - 0.0
19/06:30am 20.6 22.4 15.4 72 3.1 CALM 0 0 0 0 1024.3 - 0.0
19/06:00am 19.2 20.8 14.9 76 2.5 CALM 0 0 0 0 1024.1 - 0.0
19/05:30am 17.7 19.1 14.4 81 1.9 CALM 0 0 0 0 1024.0 - 0.0
19/05:00am 17.3 18.6 14.0 81 1.9 CALM 0 0 0 0 1023.7 - 0.0
19/04:30am 17.6 18.8 13.7 78 2.2 CALM 0 0 0 0 1023.6 1023.2 0.0
19/04:00am 17.3 18.5 13.8 80 2.0 CALM 0 0 0 0 1023.5 - 0.0
19/03:30am 17.6 18.9 14.1 80 2.0 CALM 0 0 0 0 1023.4 - 0.0
19/03:00am 17.1 18.3 13.7 80 1.9 CALM 0 0 0 0 1023.5 - 0.0
19/02:30am 17.5 18.7 13.8 79 2.1 CALM 0 0 0 0 1023.5 - 0.0
19/02:00am 17.2 17.7 13.9 81 1.9 N 4 7 2 4 1023.6 - 0.0
19/01:30am 17.8 19.0 13.8 77 2.3 CALM 0 0 0 0 1023.8 1023.4 0.0
19/01:00am 17.7 18.8 13.5 76 2.4 CALM 0 0 0 0 1024.2 - 0.0
19/12:30am 17.4 18.6 13.7 79 2.1 CALM 0 0 0 0 1024.5 - 0.0
19/12:00am 17.7 18.8 13.6 77 2.3 CALM 0 0 0 0 1024.8 - 0.0
 
Date/Time
EST
Temp
°C
App
Temp
°C
Dew
Point
Rel
Hum
%
Delta-T
°C
Wind Press
QNH
hPa
Press
MSL
hPa
Rain
since 9 am
mm
Dir
 
Spd
km/h
Gust
km/h
Spd
kts
Gust
kts
18/11:30pm 17.7 18.8 13.6 77 2.3 CALM 0 0 0 0 1024.8 - 0.0
18/11:00pm 17.7 18.8 13.6 77 2.3 CALM 0 0 0 0 1024.9 - 0.0
18/10:30pm 17.8 18.9 13.4 75 2.5 CALM 0 0 0 0 1025.0 1024.6 0.0
18/10:00pm 17.6 18.7 13.5 77 2.3 CALM 0 0 0 0 1025.3 - 0.0
18/09:30pm 17.4 18.6 13.7 79 2.1 CALM 0 0 0 0 1025.4 - 0.0
18/09:00pm 17.8 18.2 13.6 76 2.4 E 4 7 2 4 1025.4 - 0.0
18/08:30pm 18.5 18.2 13.2 71 3.0 E 7 9 4 5 1025.6 - 0.0
18/08:00pm 18.0 17.6 13.0 72 2.8 ESE 7 9 4 5 1025.5 - 0.0
18/07:30pm 17.9 18.0 12.7 71 2.9 E 4 7 2 4 1025.4 1025.1 0.0
18/07:00pm 17.8 18.7 12.8 72 2.8 CALM 0 0 0 0 1025.2 - 0.0
18/06:30pm 17.2 17.7 12.7 75 2.5 E 2 7 1 4 1025.0 - 0.0
18/06:00pm 17.9 18.4 12.7 71 2.9 ESE 2 6 1 3 1024.7 - 0.0
18/05:30pm 18.0 18.4 12.6 70 3.0 ESE 2 7 1 4 1024.5 - 0.0
18/05:00pm 18.1 19.0 12.9 71 2.9 CALM 0 0 0 0 1024.3 - 0.0
18/04:30pm 19.2 18.9 12.8 66 3.6 ESE 6 7 3 4 1024.0 1023.6 0.0
18/04:00pm 19.6 18.7 12.5 63 4.0 ESE 9 11 5 6 1024.0 - 0.0
18/03:30pm 20.6 19.6 12.4 59 4.6 SE 9 13 5 7 1023.9 - 0.0
18/03:00pm 21.0 19.8 12.9 60 4.6 SSE 11 15 6 8 1023.9 - 0.0
18/02:30pm 21.3 20.4 12.7 58 4.9 SE 9 15 5 8 1023.9 - 0.0
18/02:00pm 21.3 20.5 12.9 58 4.8 SSE 9 15 5 8 1024.0 - 0.0
18/01:30pm 21.8 20.2 12.9 57 5.1 SE 13 19 7 10 1024.2 1023.8 0.0
18/01:00pm 22.0 20.5 13.1 57 5.1 SSE 13 22 7 12 1024.3 - 0.0
18/12:30pm 21.7 20.1 12.7 56 5.1 SSE 13 19 7 10 1024.7 - 0.0
18/12:00pm 21.6 19.9 12.4 55 5.2 SSE 13 19 7 10 1024.8 - 0.0
18/11:30am 21.8 20.6 12.7 56 5.2 SSE 11 17 6 9 1025.3 - 0.0
18/11:00am 21.8 20.2 12.7 56 5.2 SSE 13 19 7 10 1025.9 - 0.0
18/10:30am 21.7 20.0 12.3 55 5.3 SE 13 24 7 13 1026.2 1025.9 0.0
18/10:00am 21.8 20.0 12.2 54 5.4 SE 13 19 7 10 1026.4 - 0.0
18/09:30am 21.3 19.5 12.0 55 5.2 S 13 19 7 10 1026.4 - 0.0
18/09:00am 21.6 20.1 12.0 54 5.4 SSE 11 17 6 9 1026.6 - 0.0
18/08:30am 21.4 19.9 11.9 54 5.3 SSE 11 15 6 8 1026.3 - 0.0
18/08:00am 21.3 19.8 12.0 55 5.2 ESE 11 17 6 9 1026.2 - 0.0
18/07:30am 21.1 20.0 12.0 56 5.1 ESE 9 15 5 8 1026.3 1026.0 0.0
18/07:00am 20.7 20.0 11.9 57 4.9 SE 7 11 4 6 1025.9 - 0.0
18/06:30am 20.6 21.4 12.6 60 4.5 CALM 0 0 0 0 1025.6 - 0.0
18/06:00am 18.7 18.9 11.8 64 3.8 SE 2 6 1 3 1025.4 - 0.0
18/05:30am 17.7 16.7 11.0 65 3.6 SE 7 7 4 4 1025.1 - 0.0
18/05:00am 17.2 16.3 11.3 68 3.2 SE 7 9 4 5 1025.0 - 0.0
18/04:30am 16.7 17.1 11.3 70 2.9 CALM 0 0 0 0 1024.7 1024.3 0.0
18/04:00am 16.4 16.8 11.2 71 2.8 CALM 0 0 0 0 1024.5 - 0.0
18/03:30am 17.1 17.1 11.2 68 3.2 E 2 7 1 4 1024.5 - 0.0
18/03:00am 17.1 17.5 11.4 69 3.1 CALM 0 0 0 0 1024.5 - 0.0
18/02:30am 17.3 17.7 11.2 67 3.3 CALM 0 0 0 0 1024.5 - 0.0
18/02:00am 17.0 17.4 11.3 69 3.1 CALM 0 0 0 0 1024.4 - 0.0
18/01:30am 17.4 17.8 11.3 67 3.3 CALM 0 0 0 0 1024.7 1024.3 0.0
18/01:00am 17.0 16.4 11.7 71 2.9 E 6 7 3 4 1024.9 - 0.0
18/12:30am 17.1 16.3 11.8 71 2.9 E 7 7 4 4 1025.1 - 0.0
18/12:00am 17.2 16.5 11.9 71 2.9 E 7 9 4 5 1025.4 - 0.0
 
Date/Time
EST
Temp
°C
App
Temp
°C
Dew
Point
Rel
Hum
%
Delta-T
°C
Wind Press
QNH
hPa
Press
MSL
hPa
Rain
since 9 am
mm
Dir
 
Spd
km/h
Gust
km/h
Spd
kts
Gust
kts
17/11:30pm 17.3 16.7 12.2 72 2.8 E 7 7 4 4 1025.4 - 0.0
17/11:00pm 17.4 16.7 11.9 70 3.0 E 7 9 4 5 1025.4 - 0.0
17/10:30pm 17.5 16.8 12.0 70 3.0 E 7 9 4 5 1025.7 1025.4 0.0
17/10:00pm 18.1 17.0 12.1 68 3.3 ESE 9 11 5 6 1026.0 - 0.0
17/09:30pm 17.2 16.2 12.3 73 2.7 E 9 9 5 5 1026.0 - 0.0
17/09:00pm 17.0 15.9 12.1 73 2.7 E 9 11 5 6 1026.2 - 0.0
17/08:30pm 17.1 16.0 12.0 72 2.8 E 9 9 5 5 1025.9 - 0.0
17/08:00pm 17.3 16.4 11.4 68 3.2 E 7 9 4 5 1025.9 - 0.0
17/07:30pm 17.2 15.9 11.3 68 3.2 E 9 13 5 7 1025.6 1025.3 0.0
17/07:00pm 17.6 15.9 11.1 65 3.5 E 11 15 6 8 1025.5 - 0.0
17/06:30pm 17.5 16.2 11.2 66 3.4 E 9 13 5 7 1025.2 - 0.0
17/06:00pm 18.3 17.0 11.3 63 3.8 ESE 9 15 5 8 1025.0 - 0.0
17/05:30pm 18.3 16.7 11.5 64 3.7 ESE 11 15 6 8 1024.7 - 0.0
17/05:00pm 18.6 17.0 11.5 63 3.9 ESE 11 15 6 8 1024.7 - 0.0
17/04:30pm 18.8 17.3 11.9 64 3.8 ESE 11 15 6 8 1024.5 1024.1 0.0
17/04:00pm 19.9 18.1 12.0 60 4.4 SE 13 22 7 12 1024.4 - 0.0
17/03:30pm 20.5 18.4 12.3 59 4.6 SE 15 24 8 13 1024.2 - 0.0
17/03:00pm 20.6 18.3 13.1 62 4.3 SE 17 24 9 13 1024.0 - 0.0
17/02:30pm 21.5 19.6 13.1 58 4.8 ESE 15 20 8 11 1023.8 - 0.0
17/02:00pm 20.6 18.1 12.4 59 4.6 SE 17 24 9 13 1023.7 - 0.0
17/01:30pm 21.0 19.0 11.4 54 5.3 E 13 20 7 11 1023.9 1023.5 0.0
17/01:00pm 21.3 19.3 12.7 58 4.9 SE 15 22 8 12 1024.1 - 0.0
17/12:30pm 21.9 20.0 11.7 52 5.7 ESE 13 22 7 12 1024.3 - 0.0
17/12:00pm 22.3 20.1 12.2 52 5.7 SE 15 22 8 12 1024.7 - 0.0
17/11:30am 22.5 20.3 12.0 51 5.9 ESE 15 24 8 13 1025.2 - 0.0
17/11:00am 22.3 20.0 11.8 51 5.9 E 15 20 8 11 1025.6 - 0.0
17/10:30am 21.4 19.1 11.7 54 5.4 ESE 15 24 8 13 1026.0 1025.7 0.0
17/10:00am 21.2 18.4 11.5 54 5.4 SE 17 24 9 13 1026.3 - 0.0
17/09:30am 21.8 19.5 12.9 57 5.1 E 17 26 9 14 1026.3 - 0.0
17/09:00am 21.8 19.5 11.8 53 5.6 E 15 24 8 13 1026.3 - 0.0
17/08:30am 21.8 19.6 13.3 58 4.9 E 17 24 9 13 1026.3 - 0.0
17/08:00am 21.5 18.9 13.3 59 4.7 ENE 19 26 10 14 1026.2 - 0.0
17/07:30am 20.8 18.4 12.5 59 4.7 E 17 26 9 14 1026.1 1025.8 1.0
17/07:00am 19.5 17.0 12.3 63 4.0 E 17 24 9 13 1025.9 - 1.0
17/06:30am 19.1 18.2 13.7 71 3.1 ESE 11 19 6 10 1025.6 - 1.0
17/06:00am 18.4 17.6 14.0 75 2.5 E 11 17 6 9 1025.2 - 1.0
17/05:30am 19.0 17.5 13.0 68 3.4 ESE 13 19 7 10 1024.7 - 0.2
17/05:00am 18.3 16.9 13.4 73 2.8 E 13 19 7 10 1024.4 - 0.2
17/04:30am 17.6 16.3 12.6 72 2.8 E 11 17 6 9 1024.1 1023.7 0.2
17/04:00am 16.7 14.9 9.4 62 3.8 E 9 13 5 7 1024.0 - 0.2
17/03:30am 16.5 15.0 10.5 67 3.2 E 9 11 5 6 1023.7 - 0.2
17/03:00am 17.3 15.7 10.1 62 3.8 ENE 9 11 5 6 1023.5 - 0.2
17/02:30am 17.6 16.1 10.7 64 3.7 E 9 13 5 7 1023.8 - 0.2
17/02:00am 18.0 16.4 11.6 66 3.5 E 11 13 6 7 1024.0 - 0.2
17/01:30am 18.4 17.0 12.1 66 3.5 E 11 15 6 8 1024.2 1023.8 0.2
17/01:00am 18.6 17.0 11.7 64 3.8 E 11 15 6 8 1024.7 - 0.2
17/12:30am 18.3 16.9 10.9 62 4.0 E 9 11 5 6 1025.2 - 0.2
17/12:00am 18.0 16.5 10.5 61 4.0 E 9 13 5 7 1025.2 - 0.2
 
Date/Time
EST
Temp
°C
App
Temp
°C
Dew
Point
Rel
Hum
%
Delta-T
°C
Wind Press
QNH
hPa
Press
MSL
hPa
Rain
since 9 am
mm
Dir
 
Spd
km/h
Gust
km/h
Spd
kts
Gust
kts
16/11:30pm 17.6 16.1 10.5 63 3.8 E 9 11 5 6 1025.2 - 0.2
16/11:00pm 18.2 16.0 10.8 62 4.0 E 13 17 7 9 1025.3 - 0.2
16/10:30pm 18.8 16.7 11.3 61 4.1 E 13 19 7 10 1025.4 1025.1 0.2
16/10:00pm 19.0 16.7 10.5 58 4.6 E 13 17 7 9 1025.5 - 0.2
16/09:30pm 18.9 17.4 10.6 58 4.5 E 9 13 5 7 1025.8 - 0.2
16/09:00pm 18.9 17.5 11.0 60 4.3 E 9 11 5 6 1025.9 - 0.2
16/08:30pm 18.6 16.6 11.5 63 3.9 ESE 13 17 7 9 1025.9 - 0.2
16/08:00pm 19.3 17.4 10.4 56 4.8 ESE 11 22 6 12 1025.9 - 0.2
16/07:30pm 19.3 17.0 10.6 57 4.7 E 13 19 7 10 1025.7 1025.4 0.2
16/07:00pm 19.5 16.8 10.4 55 4.9 E 15 20 8 11 1025.7 - 0.2
16/06:30pm 19.3 17.7 10.2 55 4.9 E 9 17 5 9 1025.3 - 0.2
16/06:00pm 19.0 17.3 11.3 61 4.2 E 11 15 6 8 1025.2 - 0.2
16/05:30pm 18.9 17.8 11.8 63 3.9 E 9 11 5 6 1025.2 - 0.2
16/05:00pm 19.2 18.4 11.6 61 4.2 ESE 7 9 4 5 1025.0 - 0.2
16/04:30pm 19.4 17.9 11.8 61 4.2 SE 11 19 6 10 1024.7 1024.3 0.2

Other Formats:

Comma delimited format used in spreadsheet applications
http://www.bom.gov.au/fwo/IDN60801/IDN60801.94996.axf

JavaScript Object Notation format (JSON) in row-major order
http://www.bom.gov.au/fwo/IDN60801/IDN60801.94996.json